createdAt,value
2022-11-28T00:01:36.221Z,102387.44
2022-11-28T00:04:06.989Z,102391.06
2022-11-28T00:06:38.546Z,102384.06
2022-11-28T00:09:07.139Z,102388.66
2022-11-28T00:11:35.402Z,102391.25
2022-11-28T00:14:03.496Z,102400.28
2022-11-28T00:16:31.660Z,102394.97
2022-11-28T00:19:01.216Z,102399.41
2022-11-28T00:21:31.208Z,102386.25
2022-11-28T00:24:00.359Z,102397.59
2022-11-28T00:26:30.020Z,102386.25
2022-11-28T00:28:58.708Z,102395.84
2022-11-28T00:31:29.445Z,102387.69
2022-11-28T00:33:58.003Z,102390.38
2022-11-28T00:36:26.331Z,102382.25
2022-11-28T00:38:56.240Z,102384.81
2022-11-28T00:41:25.683Z,102385.69
2022-11-28T00:43:53.971Z,102381.25
2022-11-28T00:46:23.519Z,102385.69
2022-11-28T00:48:52.735Z,102384.75
2022-11-28T00:51:23.101Z,102373.13
2022-11-28T00:53:52.643Z,102378.50
2022-11-28T00:56:23.968Z,102373.03
2022-11-28T00:58:52.640Z,102366.88
2022-11-28T01:01:23.498Z,102363.25
2022-11-28T01:03:53.106Z,102370.44
2022-11-28T01:06:26.188Z,102363.31
2022-11-28T01:08:54.776Z,102361.59
2022-11-28T01:11:24.484Z,102371.47
2022-11-28T01:13:54.778Z,102365.41
2022-11-28T01:16:23.210Z,102367.16
2022-11-28T01:18:51.191Z,102360.03
2022-11-28T01:21:20.058Z,102338.34
2022-11-28T01:23:48.108Z,102357.34
2022-11-28T01:26:18.712Z,102343.25
2022-11-28T01:28:48.127Z,102352.06
2022-11-28T01:31:18.918Z,102352.94
2022-11-28T01:33:46.891Z,102342.38
2022-11-28T01:36:16.054Z,102330.84
2022-11-28T01:38:44.224Z,102343.13
2022-11-28T01:41:12.774Z,102346.59
2022-11-28T01:44:01.352Z,102325.00
2022-11-28T01:46:29.717Z,102333.75
2022-11-28T01:49:00.603Z,102339.41
2022-11-28T01:51:30.983Z,102341.22
2022-11-28T01:53:59.975Z,102343.91
2022-11-28T01:56:32.523Z,102341.16
2022-11-28T01:59:08.315Z,102317.03
2022-11-28T02:01:36.454Z,102337.88
2022-11-28T02:04:05.355Z,102345.66
2022-11-28T02:06:34.304Z,102347.56
2022-11-28T02:09:02.188Z,102353.72
2022-11-28T02:11:47.421Z,102341.03
2022-11-28T02:14:31.595Z,102347.47
2022-11-28T02:17:11.675Z,102347.63
2022-11-28T02:20:25.448Z,102345.34
2022-11-28T02:23:03.962Z,102340.16
2022-11-28T02:25:57.444Z,102335.75
2022-11-28T02:28:51.287Z,102334.13
2022-11-28T02:31:30.119Z,102333.31
2022-11-28T02:34:03.555Z,102337.84
2022-11-28T02:36:36.191Z,102337.91
2022-11-28T02:39:14.390Z,102345.09
2022-11-28T02:41:48.827Z,102342.41
2022-11-28T02:44:20.032Z,102342.63
2022-11-28T02:46:56.780Z,102341.59
2022-11-28T02:49:31.029Z,102342.63
2022-11-28T02:52:03.798Z,102343.41
2022-11-28T02:54:32.738Z,102352.41
2022-11-28T02:57:00.664Z,102353.28
2022-11-28T02:59:45.771Z,102355.84
2022-11-28T03:02:17.120Z,102360.47
2022-11-28T03:04:53.543Z,102349.66
2022-11-28T03:07:32.279Z,102355.97
2022-11-28T03:10:15.651Z,102360.47
2022-11-28T03:12:52.935Z,102352.50
2022-11-28T03:15:24.371Z,102360.56
2022-11-28T03:18:01.785Z,102353.38
2022-11-28T03:20:40.887Z,102345.31
2022-11-28T03:23:15.780Z,102347.03
2022-11-28T03:25:56.459Z,102353.38
2022-11-28T03:28:28.767Z,102349.00
2022-11-28T03:31:01.504Z,102340.09
2022-11-28T03:33:34.524Z,102359.09
2022-11-28T03:36:09.510Z,102356.41
2022-11-28T03:38:41.483Z,102370.78
2022-11-28T03:41:15.706Z,102365.50
2022-11-28T03:43:48.669Z,102372.59
2022-11-28T03:46:19.491Z,102348.41
2022-11-28T03:48:50.786Z,102376.25
2022-11-28T03:51:25.525Z,102375.28
2022-11-28T03:54:01.983Z,102373.47
2022-11-28T03:56:37.708Z,102367.22
2022-11-28T03:59:11.500Z,102379.81
2022-11-28T04:01:48.991Z,102377.13
2022-11-28T04:04:23.840Z,102379.81
2022-11-28T04:06:59.312Z,102374.44
2022-11-28T04:09:40.720Z,102371.66
2022-11-28T04:12:13.791Z,102368.97
2022-11-28T04:14:50.179Z,102377.00
2022-11-28T04:17:25.160Z,102371.66
2022-11-28T04:19:58.948Z,102370.69
2022-11-28T04:22:32.593Z,102362.22
2022-11-28T04:25:05.825Z,102365.31
2022-11-28T04:27:39.127Z,102367.22
2022-11-28T04:30:09.251Z,102356.91
2022-11-28T04:32:41.543Z,102370.78
2022-11-28T04:35:13.646Z,102370.78
2022-11-28T04:37:48.784Z,102369.81
2022-11-28T04:40:17.366Z,102365.50
2022-11-28T04:42:52.963Z,102369.91
2022-11-28T04:45:26.443Z,102371.75
2022-11-28T04:47:55.135Z,102370.94
2022-11-28T04:50:26.404Z,102367.41
2022-11-28T04:53:01.569Z,102332.50
2022-11-28T04:55:34.670Z,102348.06
2022-11-28T04:58:10.236Z,102356.84
2022-11-28T05:00:39.685Z,102370.09
2022-11-28T05:03:08.595Z,102369.13
2022-11-28T05:05:44.902Z,102349.00
2022-11-28T05:08:14.491Z,102373.56
2022-11-28T05:10:42.860Z,102351.91
2022-11-28T05:13:11.155Z,102370.00
2022-11-28T05:15:39.183Z,102374.44
2022-11-28T05:18:07.309Z,102370.16
2022-11-28T05:20:35.681Z,102375.19
2022-11-28T05:23:03.558Z,102374.44
2022-11-28T05:25:32.952Z,102368.97
2022-11-28T05:28:00.839Z,102372.50
2022-11-28T05:30:28.733Z,102375.09
2022-11-28T05:32:56.688Z,102370.59
2022-11-28T05:35:24.544Z,102377.72
2022-11-28T05:37:52.457Z,102372.41
2022-11-28T05:40:20.488Z,102380.47
2022-11-28T05:42:49.759Z,102376.84
2022-11-28T05:45:17.689Z,102364.78
2022-11-28T05:47:45.816Z,102377.72
2022-11-28T05:50:13.702Z,102378.66
2022-11-28T05:52:41.656Z,102375.09
2022-11-28T05:55:10.419Z,102376.06
2022-11-28T05:57:38.373Z,102371.66
2022-11-28T06:00:09.438Z,102377.00
2022-11-28T06:02:40.088Z,102377.13
2022-11-28T06:05:27.708Z,102381.63
2022-11-28T06:07:56.761Z,102375.53
2022-11-28T06:10:24.803Z,102385.34
2022-11-28T06:12:52.715Z,102379.97
2022-11-28T06:15:21.960Z,102380.84
2022-11-28T06:17:49.852Z,102379.97
2022-11-28T06:20:17.851Z,102382.66
2022-11-28T06:22:47.791Z,102387.00
2022-11-28T06:25:15.895Z,102378.38
2022-11-28T06:27:43.786Z,102387.16
2022-11-28T06:30:12.041Z,102383.44
2022-11-28T06:32:41.298Z,102389.56
2022-11-28T06:35:09.742Z,102388.69
2022-11-28T06:37:37.642Z,102380.63
2022-11-28T06:40:07.002Z,102385.94
2022-11-28T06:42:35.941Z,102377.88
2022-11-28T06:45:04.213Z,102377.88
2022-11-28T06:47:32.331Z,102383.25
2022-11-28T06:50:01.688Z,102388.53
2022-11-28T06:52:29.560Z,102386.81
2022-11-28T06:54:57.433Z,102386.81
2022-11-28T06:57:25.335Z,102369.38
2022-11-28T06:59:53.259Z,102393.13
2022-11-28T07:02:22.329Z,102398.41
2022-11-28T07:04:50.204Z,102395.81
2022-11-28T07:07:19.577Z,102400.31
2022-11-28T07:09:47.675Z,102401.28
2022-11-28T07:12:15.864Z,102393.22
2022-11-28T07:14:43.724Z,102394.19
2022-11-28T07:17:11.620Z,102396.09
2022-11-28T07:19:39.926Z,102396.97
2022-11-28T07:22:07.928Z,102393.41
2022-11-28T07:24:37.148Z,102393.31
2022-11-28T07:27:05.226Z,102398.78
2022-11-28T07:29:36.483Z,102389.75
2022-11-28T07:32:05.813Z,102392.44
2022-11-28T07:34:33.834Z,102400.41
2022-11-28T07:37:01.744Z,102391.50
2022-11-28T07:39:29.730Z,102402.22
2022-11-28T07:41:59.017Z,102399.44
2022-11-28T07:44:27.142Z,102406.66
2022-11-28T07:46:55.123Z,102400.31
2022-11-28T07:49:23.101Z,102404.75
2022-11-28T07:51:50.979Z,102396.97
2022-11-28T07:54:18.963Z,102407.34
2022-11-28T07:59:36.340Z,102399.38
2022-11-28T08:02:04.372Z,102407.44
2022-11-28T08:04:32.404Z,102407.28
2022-11-28T08:07:00.309Z,102400.88
2022-11-28T08:09:28.311Z,102399.03
2022-11-28T08:11:56.384Z,102403.38
2022-11-28T08:14:24.500Z,102408.56
2022-11-28T08:16:53.863Z,102411.19
2022-11-28T08:19:24.769Z,102404.94
2022-11-28T08:21:52.900Z,102413.84
2022-11-28T08:24:20.767Z,102413.00
2022-11-28T08:26:48.696Z,102416.53
2022-11-28T08:29:16.610Z,102418.38
2022-11-28T08:31:44.654Z,102424.59
2022-11-28T08:34:13.958Z,102414.91
2022-11-28T08:36:43.388Z,102420.94
2022-11-28T08:39:27.799Z,102426.16
2022-11-28T08:41:57.711Z,102422.69
2022-11-28T08:44:26.183Z,102431.53
2022-11-28T08:46:54.536Z,102426.16
2022-11-28T08:49:23.876Z,102431.38
2022-11-28T08:51:52.047Z,102438.56
2022-11-28T08:54:20.860Z,102437.63
2022-11-28T08:56:49.103Z,102437.63
2022-11-28T08:59:17.138Z,102434.84
2022-11-28T09:01:45.123Z,102433.91
2022-11-28T09:04:13.174Z,102433.75
2022-11-28T09:06:42.533Z,102434.53
2022-11-28T09:09:10.465Z,102437.22
2022-11-28T09:11:38.934Z,102435.41
2022-11-28T09:14:07.517Z,102443.34
2022-11-28T09:16:35.592Z,102443.28
2022-11-28T09:19:03.968Z,102439.72
2022-11-28T09:21:31.843Z,102444.13
2022-11-28T09:24:01.145Z,102441.44
2022-11-28T09:26:29.952Z,102444.22
2022-11-28T09:28:57.893Z,102441.53
2022-11-28T09:31:25.940Z,102443.28
2022-11-28T09:33:54.787Z,102437.31
2022-11-28T09:36:24.516Z,102451.25
2022-11-28T09:38:52.478Z,102453.06
2022-11-28T09:41:57.351Z,102455.59
2022-11-28T09:44:28.280Z,102445.88
2022-11-28T09:47:00.291Z,102446.75
2022-11-28T09:49:40.716Z,102456.28
2022-11-28T09:52:26.071Z,102455.25
2022-11-28T09:55:02.100Z,102452.56
2022-11-28T09:57:36.989Z,102459.47
2022-11-28T10:00:07.231Z,102462.28
2022-11-28T10:02:48.635Z,102456.78
2022-11-28T10:05:24.428Z,102447.78
2022-11-28T10:08:10.761Z,102446.03
2022-11-28T10:10:52.669Z,102456.72
2022-11-28T10:13:36.560Z,102449.50
2022-11-28T10:16:22.131Z,102454.03
2022-11-28T10:18:53.306Z,102449.44
2022-11-28T10:21:27.280Z,102442.06
2022-11-28T10:23:59.513Z,102440.03
2022-11-28T10:26:33.917Z,102441.78
2022-11-28T10:29:11.467Z,102437.88
2022-11-28T10:31:43.282Z,102438.06
2022-11-28T10:34:17.738Z,102443.94
2022-11-28T10:36:55.500Z,102446.56
2022-11-28T10:39:23.711Z,102444.72
2022-11-28T10:42:12.494Z,102447.41
2022-11-28T10:44:53.222Z,102445.69
2022-11-28T10:47:34.776Z,102446.63
2022-11-28T10:50:08.185Z,102437.78
2022-11-28T10:52:45.170Z,102446.72
2022-11-28T10:55:27.134Z,102435.09
2022-11-28T10:58:05.696Z,102437.88
2022-11-28T11:00:36.857Z,102435.25
2022-11-28T11:03:05.946Z,102438.94
2022-11-28T11:05:36.191Z,102444.31
2022-11-28T11:08:11.908Z,102443.59
2022-11-28T11:10:44.172Z,102444.47
2022-11-28T11:13:16.831Z,102438.41
2022-11-28T11:15:47.539Z,102450.78
2022-11-28T11:18:24.783Z,102448.09
2022-11-28T11:20:53.427Z,102442.84
2022-11-28T11:23:23.064Z,102453.50
2022-11-28T11:25:54.191Z,102446.28
2022-11-28T11:28:42.636Z,102441.78
2022-11-28T11:31:22.276Z,102423.75
2022-11-28T11:33:53.126Z,102432.41
2022-11-28T11:36:28.207Z,102449.75
2022-11-28T11:39:08.922Z,102437.19
2022-11-28T11:41:36.925Z,102445.34
2022-11-28T11:44:30.284Z,102448.72
2022-11-28T11:47:03.856Z,102439.28
2022-11-28T11:49:34.167Z,102447.75
2022-11-28T11:52:04.380Z,102450.47
2022-11-28T11:54:32.591Z,102434.50
2022-11-28T11:57:30.909Z,102439.78
2022-11-28T11:59:53.909Z,102443.44
2022-11-28T12:02:31.254Z,102436.13
2022-11-28T12:05:06.430Z,102431.09
2022-11-28T12:07:40.409Z,102433.44
2022-11-28T12:10:13.947Z,102415.41
2022-11-28T12:12:42.451Z,102442.28
2022-11-28T12:15:17.143Z,102438.66
2022-11-28T12:17:59.041Z,102444.81
2022-11-28T12:20:47.006Z,102439.41
2022-11-28T12:23:30.291Z,102441.16
2022-11-28T12:26:07.232Z,102441.16
2022-11-28T12:28:47.328Z,102447.31
2022-11-28T12:31:22.390Z,102450.88
2022-11-28T12:34:04.792Z,102450.88
2022-11-28T12:36:37.811Z,102452.69
2022-11-28T12:39:18.701Z,102449.84
2022-11-28T12:42:17.915Z,102437.78
2022-11-28T12:44:58.478Z,102398.78
2022-11-28T12:47:41.424Z,102450.72
2022-11-28T12:50:23.805Z,102450.72
2022-11-28T12:53:00.683Z,102448.78
2022-11-28T12:55:35.337Z,102450.50
2022-11-28T12:58:10.177Z,102453.13
2022-11-28T13:00:50.548Z,102456.56
2022-11-28T13:03:34.283Z,102444.06
2022-11-28T13:06:14.835Z,102444.88
2022-11-28T13:08:58.935Z,102445.81
2022-11-28T13:11:57.219Z,102444.94
2022-11-28T13:14:35.340Z,102448.50
2022-11-28T13:17:14.427Z,102442.19
2022-11-28T13:19:53.247Z,102443.06
2022-11-28T13:22:25.782Z,102421.38
2022-11-28T13:25:01.858Z,102448.44
2022-11-28T13:27:37.919Z,102450.16
2022-11-28T13:30:18.023Z,102451.03
2022-11-28T13:32:50.495Z,102440.78
2022-11-28T13:35:20.724Z,102448.34
2022-11-28T13:40:52.290Z,102433.69
2022-11-28T13:43:27.146Z,102456.41
2022-11-28T13:45:55.867Z,102457.28
2022-11-28T13:51:41.725Z,102452.94
2022-11-28T13:54:48.823Z,102453.81
2022-11-28T13:57:25.011Z,102455.69
2022-11-28T14:00:02.331Z,102454.00
2022-11-28T14:02:45.960Z,102458.50
2022-11-28T14:05:34.877Z,102465.53
2022-11-28T14:08:04.136Z,102454.00
2022-11-28T14:11:05.834Z,102463.78
2022-11-28T14:14:01.005Z,102460.22
2022-11-28T14:16:45.437Z,102448.50
2022-11-28T14:19:26.556Z,102465.53
2022-11-28T14:22:07.859Z,102469.84
2022-11-28T14:24:56.559Z,102469.09
2022-11-28T14:27:29.260Z,102475.41
2022-11-28T14:29:58.878Z,102472.53
2022-11-28T14:32:33.394Z,102472.44
2022-11-28T14:35:03.437Z,102488.59
2022-11-28T14:37:50.446Z,102471.50
2022-11-28T14:41:01.318Z,102475.06
2022-11-28T14:43:32.812Z,102483.31
2022-11-28T14:46:21.590Z,102471.50
2022-11-28T14:49:21.304Z,102469.69
2022-11-28T14:52:38.610Z,102468.91
2022-11-28T14:55:18.702Z,102476.19
2022-11-28T14:57:56.659Z,102476.09
2022-11-28T15:00:28.875Z,102476.97
2022-11-28T15:03:20.723Z,102476.09
2022-11-28T15:05:51.814Z,102472.53
2022-11-28T15:08:58.859Z,102475.13
2022-11-28T15:11:43.747Z,102468.22
2022-11-28T15:14:21.881Z,102464.75
2022-11-28T15:16:56.489Z,102475.13
2022-11-28T15:19:27.762Z,102459.44
2022-11-28T15:21:57.038Z,102487.63
2022-11-28T15:24:27.799Z,102491.09
2022-11-28T15:26:59.565Z,102478.63
2022-11-28T15:29:29.720Z,102478.63
2022-11-28T15:32:01.242Z,102483.03
2022-11-28T15:34:31.843Z,102445.75
2022-11-28T15:37:01.708Z,102486.50
2022-11-28T15:39:35.071Z,102480.16
2022-11-28T15:42:06.641Z,102499.78
2022-11-28T15:44:37.609Z,102447.50
2022-11-28T15:47:18.558Z,102476.53
2022-11-28T15:49:47.067Z,102483.63
2022-11-28T15:52:18.556Z,102480.34
2022-11-28T15:54:51.492Z,102477.47
2022-11-28T15:57:21.207Z,102479.47
2022-11-28T15:59:49.251Z,102462.72
2022-11-28T16:02:23.668Z,102480.06
2022-11-28T16:04:56.110Z,102477.56
2022-11-28T16:07:24.350Z,102484.50
2022-11-28T16:09:58.035Z,102484.38
2022-11-28T16:12:27.139Z,102480.00
2022-11-28T16:15:01.440Z,102482.59
2022-11-28T16:17:33.597Z,102476.31
2022-11-28T16:20:04.593Z,102484.38
2022-11-28T16:22:36.696Z,102478.09
2022-11-28T16:25:21.334Z,102476.31
2022-11-28T16:27:53.130Z,102474.59
2022-11-28T16:30:36.879Z,102475.41
2022-11-28T16:33:36.074Z,102477.28
2022-11-28T16:36:12.557Z,102477.28
2022-11-28T16:38:41.370Z,102474.53
2022-11-28T16:41:16.205Z,102478.09
2022-11-28T16:43:47.189Z,102476.28
2022-11-28T16:46:22.113Z,102480.50
2022-11-28T16:48:56.472Z,102492.16
2022-11-28T16:51:45.208Z,102476.97
2022-11-28T16:54:30.099Z,102480.63
2022-11-28T16:57:09.360Z,102471.31
2022-11-28T16:59:37.624Z,102471.91
2022-11-28T17:02:13.385Z,102476.28
2022-11-28T17:04:42.908Z,102481.56
2022-11-28T17:07:13.843Z,102477.06
2022-11-28T17:09:42.778Z,102480.84
2022-11-28T17:12:18.139Z,102475.34
2022-11-28T17:14:46.255Z,102475.47
2022-11-28T17:17:15.535Z,102478.97
2022-11-28T17:19:45.753Z,102477.22
2022-11-28T17:22:16.583Z,102479.84
2022-11-28T17:24:44.905Z,102484.38
2022-11-28T17:27:14.226Z,102470.09
2022-11-28T17:29:43.032Z,102481.56
2022-11-28T17:32:13.441Z,102481.56
2022-11-28T17:34:42.104Z,102484.34
2022-11-28T17:37:11.637Z,102484.34
2022-11-28T17:39:39.677Z,102477.22
2022-11-28T17:42:07.573Z,102489.75
2022-11-28T17:44:37.627Z,102484.34
2022-11-28T17:47:07.260Z,102475.41
2022-11-28T17:49:35.589Z,102487.09
2022-11-28T17:52:03.683Z,102489.75
2022-11-28T17:54:33.008Z,102489.75
2022-11-28T17:57:01.539Z,102490.69
2022-11-28T17:59:29.508Z,102484.34
2022-11-28T18:01:57.769Z,102488.88
2022-11-28T18:04:26.289Z,102472.38
2022-11-28T18:06:54.237Z,102483.31
2022-11-28T18:09:22.256Z,102487.09
2022-11-28T18:11:51.787Z,102489.63
2022-11-28T18:14:20.113Z,102492.31
2022-11-28T18:16:48.798Z,102496.88
2022-11-28T18:19:16.856Z,102486.25
2022-11-28T18:21:45.077Z,102493.38
2022-11-28T18:24:13.389Z,102495.16
2022-11-28T18:26:42.343Z,102484.38
2022-11-28T18:29:11.617Z,102488.94
2022-11-28T18:31:39.663Z,102488.94
2022-11-28T18:34:09.555Z,102495.16
2022-11-28T18:36:39.506Z,102489.00
2022-11-28T18:39:10.398Z,102480.50
2022-11-28T18:41:40.219Z,102457.81
2022-11-28T18:44:08.999Z,102483.91
2022-11-28T18:46:39.900Z,102482.97
2022-11-28T18:49:08.354Z,102480.28
2022-11-28T18:51:36.941Z,102486.59
2022-11-28T18:54:06.794Z,102479.28
2022-11-28T18:56:35.811Z,102478.41
2022-11-28T18:59:04.244Z,102481.03
2022-11-28T19:01:34.042Z,102478.53
2022-11-28T19:04:06.962Z,102476.78
2022-11-28T19:06:36.589Z,102483.31
2022-11-28T19:09:07.082Z,102485.06
2022-11-28T19:11:35.067Z,102483.47
2022-11-28T19:14:03.603Z,102487.97
2022-11-28T19:16:33.209Z,102484.53
2022-11-28T19:19:03.548Z,102480.38
2022-11-28T19:21:34.243Z,102488.38
2022-11-28T19:24:04.111Z,102487.66
2022-11-28T19:26:34.059Z,102488.72
2022-11-28T19:29:02.902Z,102492.34
2022-11-28T19:31:33.182Z,102496.84
2022-11-28T19:34:04.310Z,102491.56
2022-11-28T19:36:34.150Z,102493.66
2022-11-28T19:39:02.500Z,102491.75
2022-11-28T19:41:32.331Z,102469.47
2022-11-28T19:44:00.674Z,102498.25
2022-11-28T19:46:35.058Z,102495.56
2022-11-28T19:49:06.675Z,102498.31
2022-11-28T19:51:35.322Z,102506.50
2022-11-28T19:54:04.182Z,102507.44
2022-11-28T19:56:34.378Z,102503.03
2022-11-28T19:59:02.998Z,102503.97
2022-11-28T20:01:31.099Z,102498.69
2022-11-28T20:03:59.844Z,102497.91
2022-11-28T20:06:32.279Z,102434.66
2022-11-28T20:09:02.180Z,102433.88
2022-11-28T20:11:31.968Z,102501.63
2022-11-28T20:14:02.300Z,102495.56
2022-11-28T20:16:32.099Z,102503.47
2022-11-28T20:19:01.424Z,102505.34
2022-11-28T20:21:31.961Z,102499.97
2022-11-28T20:24:04.795Z,102502.00
2022-11-28T20:26:37.879Z,102509.09
2022-11-28T20:29:06.846Z,102498.53
2022-11-28T20:31:37.477Z,102505.56
2022-11-28T20:34:06.720Z,102511.78
2022-11-28T20:36:36.408Z,102446.53
2022-11-28T20:39:05.633Z,102509.88
2022-11-28T20:41:34.535Z,102506.06
2022-11-28T20:44:02.989Z,102510.56
2022-11-28T20:46:33.595Z,102504.06
2022-11-28T20:49:03.268Z,102513.97
2022-11-28T20:51:33.105Z,102511.09
2022-11-28T20:54:04.759Z,102500.69
2022-11-28T20:56:51.691Z,102498.09
2022-11-28T20:59:23.257Z,102510.06
2022-11-28T21:01:51.217Z,102511.00
2022-11-28T21:04:19.903Z,102514.22
2022-11-28T21:06:49.263Z,102515.06
2022-11-28T21:09:20.469Z,102489.06
2022-11-28T21:11:58.455Z,102515.00
2022-11-28T21:14:27.723Z,102517.69
2022-11-28T21:16:55.822Z,102514.91
2022-11-28T21:19:23.882Z,102514.91
2022-11-28T21:21:51.892Z,102523.84
2022-11-28T21:24:21.192Z,102516.53
2022-11-28T21:26:53.337Z,102492.44
2022-11-28T21:29:22.330Z,102513.78
2022-11-28T21:31:50.318Z,102515.50
2022-11-28T21:34:19.396Z,102513.84
2022-11-28T21:36:47.774Z,102515.44
2022-11-28T21:39:18.784Z,102519.75
2022-11-28T21:41:48.391Z,102513.63
2022-11-28T21:44:16.467Z,102515.44
2022-11-28T21:46:44.442Z,102512.63
2022-11-28T21:49:13.665Z,102516.19
2022-11-28T21:51:41.764Z,102518.03
2022-11-28T21:54:11.157Z,102512.56
2022-11-28T21:56:39.186Z,102513.41
2022-11-28T21:59:08.659Z,102510.66
2022-11-28T22:01:36.733Z,102499.13
2022-11-28T22:04:05.102Z,102513.25
2022-11-28T22:06:33.784Z,102511.41
2022-11-28T22:09:08.731Z,102514.13
2022-11-28T22:11:39.485Z,102479.25
2022-11-28T22:14:09.259Z,102498.16
2022-11-28T22:16:38.001Z,102494.09
2022-11-28T22:19:06.514Z,102508.63
2022-11-28T22:21:54.491Z,102509.44
2022-11-28T22:24:24.401Z,102506.03
2022-11-28T22:26:52.416Z,102500.06
2022-11-28T22:29:21.771Z,102505.88
2022-11-28T22:31:50.118Z,102511.25
2022-11-28T22:34:19.367Z,102513.00
2022-11-28T22:36:47.402Z,102515.69
2022-11-28T22:39:15.480Z,102517.50
2022-11-28T22:41:43.527Z,102514.72
2022-11-28T22:44:12.676Z,102510.31
2022-11-28T22:46:41.947Z,102520.19
2022-11-28T22:49:11.799Z,102521.13
2022-11-28T22:51:40.765Z,102516.63
2022-11-28T22:54:11.587Z,102523.22
2022-11-28T22:56:40.789Z,102531.03
2022-11-28T22:59:12.739Z,102502.22
2022-11-28T23:01:43.513Z,102528.34
2022-11-28T23:04:12.109Z,102523.94
2022-11-28T23:06:40.692Z,102529.31
2022-11-28T23:09:10.593Z,102532.78
2022-11-28T23:11:40.590Z,102529.22
2022-11-28T23:14:09.348Z,102532.78
2022-11-28T23:16:38.770Z,102529.22
2022-11-28T23:19:11.904Z,102528.25
2022-11-28T23:21:42.319Z,102511.75
2022-11-28T23:24:14.033Z,102540.75
2022-11-28T23:26:42.159Z,102534.53
2022-11-28T23:29:10.442Z,102529.13
2022-11-28T23:31:41.852Z,102529.13
2022-11-28T23:34:12.176Z,102540.69
2022-11-28T23:36:43.116Z,102524.78
2022-11-28T23:39:14.042Z,102533.47
2022-11-28T23:41:42.683Z,102522.88
2022-11-28T23:44:11.828Z,102537.97
2022-11-28T23:46:40.729Z,102537.00
2022-11-28T23:49:09.159Z,102526.34
2022-11-28T23:51:38.601Z,102526.25
2022-11-28T23:54:06.615Z,102523.66
2022-11-28T23:56:36.288Z,102529.03
2022-11-28T23:59:06.330Z,102517.56
